sensor_id;sensor_type;location;lat;lon;timestamp;P1;durP1;ratioP1;P2;durP2;ratioP2
37451;SDS011;23314;51.114;6.900;2022-10-18T00:01:55;13.23;;;8.90;;
37451;SDS011;23314;51.114;6.900;2022-10-18T00:04:20;11.20;;;8.50;;
37451;SDS011;23314;51.114;6.900;2022-10-18T00:06:46;13.07;;;8.60;;
37451;SDS011;23314;51.114;6.900;2022-10-18T00:09:11;11.77;;;8.80;;
37451;SDS011;23314;51.114;6.900;2022-10-18T00:11:37;10.13;;;9.00;;
37451;SDS011;23314;51.114;6.900;2022-10-18T00:14:02;8.33;;;7.60;;
37451;SDS011;23314;51.114;6.900;2022-10-18T00:16:28;11.87;;;9.10;;
37451;SDS011;23314;51.114;6.900;2022-10-18T00:18:54;9.23;;;8.27;;
37451;SDS011;23314;51.114;6.900;2022-10-18T00:21:20;11.20;;;8.87;;
37451;SDS011;23314;51.114;6.900;2022-10-18T00:23:47;12.60;;;9.77;;
37451;SDS011;23314;51.114;6.900;2022-10-18T00:26:17;12.97;;;9.27;;
37451;SDS011;23314;51.114;6.900;2022-10-18T00:28:46;13.83;;;8.83;;
37451;SDS011;23314;51.114;6.900;2022-10-18T00:31:16;9.93;;;8.80;;
37451;SDS011;23314;51.114;6.900;2022-10-18T00:33:45;10.60;;;9.40;;
37451;SDS011;23314;51.114;6.900;2022-10-18T00:36:12;13.27;;;9.03;;
37451;SDS011;23314;51.114;6.900;2022-10-18T00:38:38;10.57;;;9.17;;
37451;SDS011;23314;51.114;6.900;2022-10-18T00:41:04;10.30;;;8.27;;
37451;SDS011;23314;51.114;6.900;2022-10-18T00:43:31;11.53;;;9.03;;
37451;SDS011;23314;51.114;6.900;2022-10-18T00:46:00;11.33;;;8.90;;
37451;SDS011;23314;51.114;6.900;2022-10-18T00:48:26;10.37;;;9.13;;
37451;SDS011;23314;51.114;6.900;2022-10-18T00:50:52;11.03;;;9.67;;
37451;SDS011;23314;51.114;6.900;2022-10-18T00:53:18;11.77;;;10.67;;
37451;SDS011;23314;51.114;6.900;2022-10-18T00:55:45;14.40;;;10.93;;
37451;SDS011;23314;51.114;6.900;2022-10-18T00:58:11;14.33;;;10.63;;
37451;SDS011;23314;51.114;6.900;2022-10-18T01:00:38;13.73;;;10.63;;
37451;SDS011;23314;51.114;6.900;2022-10-18T01:03:05;12.10;;;9.67;;
37451;SDS011;23314;51.114;6.900;2022-10-18T01:05:32;13.83;;;10.43;;
37451;SDS011;23314;51.114;6.900;2022-10-18T01:08:15;10.73;;;9.43;;
37451;SDS011;23314;51.114;6.900;2022-10-18T01:11:04;11.77;;;9.63;;
37451;SDS011;23314;51.114;6.900;2022-10-18T01:18:55;11.97;;;9.20;;
37451;SDS011;23314;51.114;6.900;2022-10-18T01:21:33;14.00;;;8.80;;
37451;SDS011;23314;51.114;6.900;2022-10-18T01:24:19;10.67;;;8.73;;
37451;SDS011;23314;51.114;6.900;2022-10-18T01:32:43;11.43;;;8.47;;
37451;SDS011;23314;51.114;6.900;2022-10-18T01:35:14;12.50;;;10.00;;
37451;SDS011;23314;51.114;6.900;2022-10-18T01:37:44;10.07;;;9.00;;
37451;SDS011;23314;51.114;6.900;2022-10-18T01:40:12;11.27;;;8.63;;
37451;SDS011;23314;51.114;6.900;2022-10-18T01:42:40;13.43;;;10.20;;
37451;SDS011;23314;51.114;6.900;2022-10-18T01:45:07;10.97;;;8.40;;
37451;SDS011;23314;51.114;6.900;2022-10-18T01:47:34;11.93;;;9.37;;
37451;SDS011;23314;51.114;6.900;2022-10-18T01:50:02;11.83;;;8.83;;
37451;SDS011;23314;51.114;6.900;2022-10-18T01:52:29;9.13;;;8.20;;
37451;SDS011;23314;51.114;6.900;2022-10-18T01:54:55;10.90;;;9.30;;
37451;SDS011;23314;51.114;6.900;2022-10-18T01:57:29;12.80;;;8.30;;
37451;SDS011;23314;51.114;6.900;2022-10-18T02:07:53;9.00;;;8.10;;
37451;SDS011;23314;51.114;6.900;2022-10-18T02:10:27;11.33;;;8.90;;
37451;SDS011;23314;51.114;6.900;2022-10-18T02:12:55;15.20;;;9.63;;
37451;SDS011;23314;51.114;6.900;2022-10-18T02:15:23;10.97;;;8.70;;
37451;SDS011;23314;51.114;6.900;2022-10-18T02:17:52;10.80;;;9.30;;
37451;SDS011;23314;51.114;6.900;2022-10-18T02:20:20;11.77;;;8.97;;
37451;SDS011;23314;51.114;6.900;2022-10-18T02:22:48;9.67;;;8.57;;
37451;SDS011;23314;51.114;6.900;2022-10-18T02:25:16;9.57;;;8.63;;
37451;SDS011;23314;51.114;6.900;2022-10-18T02:27:46;12.13;;;9.60;;
37451;SDS011;23314;51.114;6.900;2022-10-18T02:30:11;15.67;;;9.67;;
37451;SDS011;23314;51.114;6.900;2022-10-18T02:32:51;12.53;;;9.30;;
37451;SDS011;23314;51.114;6.900;2022-10-18T02:35:26;9.63;;;8.70;;
37451;SDS011;23314;51.114;6.900;2022-10-18T02:37:56;11.57;;;10.13;;
37451;SDS011;23314;51.114;6.900;2022-10-18T02:40:22;10.03;;;8.93;;
37451;SDS011;23314;51.114;6.900;2022-10-18T02:42:50;10.73;;;9.67;;
37451;SDS011;23314;51.114;6.900;2022-10-18T02:45:18;10.37;;;9.27;;
37451;SDS011;23314;51.114;6.900;2022-10-18T02:47:43;11.43;;;9.63;;
37451;SDS011;23314;51.114;6.900;2022-10-18T02:50:09;10.83;;;9.37;;
37451;SDS011;23314;51.114;6.900;2022-10-18T02:52:34;12.67;;;8.70;;
37451;SDS011;23314;51.114;6.900;2022-10-18T02:54:59;9.97;;;8.90;;
37451;SDS011;23314;51.114;6.900;2022-10-18T02:57:25;10.40;;;8.90;;
37451;SDS011;23314;51.114;6.900;2022-10-18T02:59:50;10.23;;;9.23;;
37451;SDS011;23314;51.114;6.900;2022-10-18T03:02:16;10.97;;;9.50;;
37451;SDS011;23314;51.114;6.900;2022-10-18T03:04:41;11.33;;;9.80;;
37451;SDS011;23314;51.114;6.900;2022-10-18T03:07:06;10.80;;;9.27;;
37451;SDS011;23314;51.114;6.900;2022-10-18T03:09:32;11.67;;;9.57;;
37451;SDS011;23314;51.114;6.900;2022-10-18T03:11:57;11.83;;;9.87;;
37451;SDS011;23314;51.114;6.900;2022-10-18T03:14:23;11.53;;;9.87;;
37451;SDS011;23314;51.114;6.900;2022-10-18T03:16:48;10.87;;;9.47;;
37451;SDS011;23314;51.114;6.900;2022-10-18T03:19:13;14.10;;;9.70;;
37451;SDS011;23314;51.114;6.900;2022-10-18T03:21:39;10.43;;;9.47;;
37451;SDS011;23314;51.114;6.900;2022-10-18T03:24:04;11.50;;;10.33;;
37451;SDS011;23314;51.114;6.900;2022-10-18T03:26:30;16.07;;;10.67;;
37451;SDS011;23314;51.114;6.900;2022-10-18T03:28:55;13.37;;;10.00;;
37451;SDS011;23314;51.114;6.900;2022-10-18T03:31:20;11.90;;;10.27;;
37451;SDS011;23314;51.114;6.900;2022-10-18T03:33:46;12.83;;;11.33;;
37451;SDS011;23314;51.114;6.900;2022-10-18T03:36:11;13.30;;;10.97;;
37451;SDS011;23314;51.114;6.900;2022-10-18T03:38:36;13.13;;;10.67;;
37451;SDS011;23314;51.114;6.900;2022-10-18T03:41:02;13.57;;;11.20;;
37451;SDS011;23314;51.114;6.900;2022-10-18T03:43:27;15.20;;;12.53;;
37451;SDS011;23314;51.114;6.900;2022-10-18T03:45:53;14.37;;;11.13;;
37451;SDS011;23314;51.114;6.900;2022-10-18T03:48:19;15.73;;;12.20;;
37451;SDS011;23314;51.114;6.900;2022-10-18T03:50:44;16.73;;;11.57;;
37451;SDS011;23314;51.114;6.900;2022-10-18T03:53:09;16.43;;;11.93;;
37451;SDS011;23314;51.114;6.900;2022-10-18T03:55:35;15.13;;;10.93;;
37451;SDS011;23314;51.114;6.900;2022-10-18T03:58:01;13.33;;;11.83;;
37451;SDS011;23314;51.114;6.900;2022-10-18T04:00:27;17.50;;;13.97;;
37451;SDS011;23314;51.114;6.900;2022-10-18T04:02:52;20.53;;;14.90;;
37451;SDS011;23314;51.114;6.900;2022-10-18T04:05:17;18.23;;;13.50;;
37451;SDS011;23314;51.114;6.900;2022-10-18T04:07:43;18.83;;;14.67;;
37451;SDS011;23314;51.114;6.900;2022-10-18T04:10:08;19.33;;;14.67;;
37451;SDS011;23314;51.114;6.900;2022-10-18T04:12:34;18.67;;;14.07;;
37451;SDS011;23314;51.114;6.900;2022-10-18T04:14:59;19.07;;;14.23;;
37451;SDS011;23314;51.114;6.900;2022-10-18T04:17:24;16.27;;;13.57;;
37451;SDS011;23314;51.114;6.900;2022-10-18T04:19:50;16.73;;;13.10;;
37451;SDS011;23314;51.114;6.900;2022-10-18T04:22:15;16.53;;;12.83;;
37451;SDS011;23314;51.114;6.900;2022-10-18T04:24:40;17.53;;;12.83;;
37451;SDS011;23314;51.114;6.900;2022-10-18T04:27:06;13.70;;;11.93;;
37451;SDS011;23314;51.114;6.900;2022-10-18T04:29:31;15.23;;;13.03;;
37451;SDS011;23314;51.114;6.900;2022-10-18T04:31:57;18.60;;;13.87;;
37451;SDS011;23314;51.114;6.900;2022-10-18T04:34:22;16.07;;;12.70;;
37451;SDS011;23314;51.114;6.900;2022-10-18T04:36:48;18.80;;;13.50;;
37451;SDS011;23314;51.114;6.900;2022-10-18T04:39:13;18.90;;;13.77;;
37451;SDS011;23314;51.114;6.900;2022-10-18T04:41:39;17.67;;;14.03;;
37451;SDS011;23314;51.114;6.900;2022-10-18T04:44:04;20.33;;;13.80;;
37451;SDS011;23314;51.114;6.900;2022-10-18T04:46:29;16.80;;;12.57;;
37451;SDS011;23314;51.114;6.900;2022-10-18T04:48:55;18.63;;;12.77;;
37451;SDS011;23314;51.114;6.900;2022-10-18T04:51:20;20.20;;;14.63;;
37451;SDS011;23314;51.114;6.900;2022-10-18T04:53:46;16.80;;;13.60;;
37451;SDS011;23314;51.114;6.900;2022-10-18T04:56:11;20.97;;;14.30;;
37451;SDS011;23314;51.114;6.900;2022-10-18T04:58:37;27.73;;;15.77;;
37451;SDS011;23314;51.114;6.900;2022-10-18T05:01:05;25.90;;;15.33;;
37451;SDS011;23314;51.114;6.900;2022-10-18T05:03:31;13.93;;;11.93;;
37451;SDS011;23314;51.114;6.900;2022-10-18T05:05:56;16.77;;;13.63;;
37451;SDS011;23314;51.114;6.900;2022-10-18T05:08:22;26.53;;;15.77;;
37451;SDS011;23314;51.114;6.900;2022-10-18T05:10:47;22.20;;;14.83;;
37451;SDS011;23314;51.114;6.900;2022-10-18T05:13:12;19.07;;;14.53;;
37451;SDS011;23314;51.114;6.900;2022-10-18T05:15:38;22.03;;;15.33;;
37451;SDS011;23314;51.114;6.900;2022-10-18T05:18:03;19.63;;;13.07;;
37451;SDS011;23314;51.114;6.900;2022-10-18T05:20:28;19.97;;;15.30;;
37451;SDS011;23314;51.114;6.900;2022-10-18T05:22:54;19.83;;;13.57;;
37451;SDS011;23314;51.114;6.900;2022-10-18T05:25:19;18.90;;;13.10;;
37451;SDS011;23314;51.114;6.900;2022-10-18T05:27:44;18.17;;;14.10;;
37451;SDS011;23314;51.114;6.900;2022-10-18T05:30:09;18.73;;;14.43;;
37451;SDS011;23314;51.114;6.900;2022-10-18T05:32:35;19.23;;;14.40;;
37451;SDS011;23314;51.114;6.900;2022-10-18T05:35:00;20.50;;;14.73;;
37451;SDS011;23314;51.114;6.900;2022-10-18T05:37:26;18.67;;;13.83;;
37451;SDS011;23314;51.114;6.900;2022-10-18T05:39:51;18.83;;;15.80;;
37451;SDS011;23314;51.114;6.900;2022-10-18T05:42:16;20.73;;;16.10;;
37451;SDS011;23314;51.114;6.900;2022-10-18T05:44:42;20.43;;;16.80;;
37451;SDS011;23314;51.114;6.900;2022-10-18T05:47:07;19.10;;;16.23;;
37451;SDS011;23314;51.114;6.900;2022-10-18T05:49:32;16.77;;;14.50;;
37451;SDS011;23314;51.114;6.900;2022-10-18T05:51:58;16.57;;;14.77;;
37451;SDS011;23314;51.114;6.900;2022-10-18T05:54:23;19.40;;;14.47;;
37451;SDS011;23314;51.114;6.900;2022-10-18T05:56:48;14.40;;;12.37;;
37451;SDS011;23314;51.114;6.900;2022-10-18T05:59:14;17.53;;;13.30;;
37451;SDS011;23314;51.114;6.900;2022-10-18T06:01:40;22.17;;;14.03;;
37451;SDS011;23314;51.114;6.900;2022-10-18T06:04:07;17.27;;;13.80;;
37451;SDS011;23314;51.114;6.900;2022-10-18T06:06:34;16.70;;;13.20;;
37451;SDS011;23314;51.114;6.900;2022-10-18T06:09:00;14.43;;;12.70;;
37451;SDS011;23314;51.114;6.900;2022-10-18T06:11:27;18.13;;;14.17;;
37451;SDS011;23314;51.114;6.900;2022-10-18T06:13:53;18.17;;;13.67;;
37451;SDS011;23314;51.114;6.900;2022-10-18T06:16:20;17.73;;;14.07;;
37451;SDS011;23314;51.114;6.900;2022-10-18T06:18:50;19.03;;;14.87;;
37451;SDS011;23314;51.114;6.900;2022-10-18T06:21:17;22.37;;;14.57;;
37451;SDS011;23314;51.114;6.900;2022-10-18T06:23:47;18.87;;;14.37;;
37451;SDS011;23314;51.114;6.900;2022-10-18T06:26:16;14.63;;;13.03;;
37451;SDS011;23314;51.114;6.900;2022-10-18T06:28:41;15.23;;;12.77;;
37451;SDS011;23314;51.114;6.900;2022-10-18T06:31:07;20.87;;;12.67;;
37451;SDS011;23314;51.114;6.900;2022-10-18T06:33:33;18.03;;;14.90;;
37451;SDS011;23314;51.114;6.900;2022-10-18T06:36:00;17.87;;;13.33;;
37451;SDS011;23314;51.114;6.900;2022-10-18T06:38:27;18.47;;;14.17;;
37451;SDS011;23314;51.114;6.900;2022-10-18T06:40:53;20.80;;;14.87;;
37451;SDS011;23314;51.114;6.900;2022-10-18T06:43:20;17.87;;;14.20;;
37451;SDS011;23314;51.114;6.900;2022-10-18T06:45:45;16.30;;;13.80;;
37451;SDS011;23314;51.114;6.900;2022-10-18T06:48:10;17.10;;;12.87;;
37451;SDS011;23314;51.114;6.900;2022-10-18T06:50:35;21.13;;;14.23;;
37451;SDS011;23314;51.114;6.900;2022-10-18T06:53:01;21.67;;;14.57;;
37451;SDS011;23314;51.114;6.900;2022-10-18T06:55:29;20.67;;;14.70;;
37451;SDS011;23314;51.114;6.900;2022-10-18T06:57:54;20.07;;;14.97;;
37451;SDS011;23314;51.114;6.900;2022-10-18T07:00:20;20.63;;;13.70;;
37451;SDS011;23314;51.114;6.900;2022-10-18T07:02:45;18.70;;;14.30;;
37451;SDS011;23314;51.114;6.900;2022-10-18T07:05:10;20.87;;;14.63;;
37451;SDS011;23314;51.114;6.900;2022-10-18T07:07:36;20.97;;;14.50;;
37451;SDS011;23314;51.114;6.900;2022-10-18T07:10:02;22.13;;;14.10;;
37451;SDS011;23314;51.114;6.900;2022-10-18T07:12:29;21.10;;;15.27;;
37451;SDS011;23314;51.114;6.900;2022-10-18T07:14:55;21.53;;;15.33;;
37451;SDS011;23314;51.114;6.900;2022-10-18T07:17:20;25.47;;;15.73;;
37451;SDS011;23314;51.114;6.900;2022-10-18T07:19:45;25.33;;;15.63;;
37451;SDS011;23314;51.114;6.900;2022-10-18T07:22:11;25.63;;;16.40;;
37451;SDS011;23314;51.114;6.900;2022-10-18T07:24:36;24.27;;;16.80;;
37451;SDS011;23314;51.114;6.900;2022-10-18T07:27:01;26.53;;;17.57;;
37451;SDS011;23314;51.114;6.900;2022-10-18T07:29:26;26.40;;;15.40;;
37451;SDS011;23314;51.114;6.900;2022-10-18T07:31:52;30.20;;;17.17;;
37451;SDS011;23314;51.114;6.900;2022-10-18T07:34:17;36.37;;;20.23;;
37451;SDS011;23314;51.114;6.900;2022-10-18T07:36:43;37.33;;;20.30;;
37451;SDS011;23314;51.114;6.900;2022-10-18T07:39:08;37.60;;;20.53;;
37451;SDS011;23314;51.114;6.900;2022-10-18T07:41:34;40.10;;;21.83;;
37451;SDS011;23314;51.114;6.900;2022-10-18T07:44:00;59.57;;;26.17;;
37451;SDS011;23314;51.114;6.900;2022-10-18T07:46:26;47.13;;;22.77;;
37451;SDS011;23314;51.114;6.900;2022-10-18T07:48:51;42.23;;;21.23;;
37451;SDS011;23314;51.114;6.900;2022-10-18T07:51:17;46.23;;;23.03;;
37451;SDS011;23314;51.114;6.900;2022-10-18T07:53:43;46.90;;;21.97;;
37451;SDS011;23314;51.114;6.900;2022-10-18T07:56:13;41.47;;;20.77;;
37451;SDS011;23314;51.114;6.900;2022-10-18T07:58:43;25.40;;;17.97;;
37451;SDS011;23314;51.114;6.900;2022-10-18T08:01:09;30.40;;;18.60;;
37451;SDS011;23314;51.114;6.900;2022-10-18T08:03:36;34.83;;;19.43;;
37451;SDS011;23314;51.114;6.900;2022-10-18T08:06:02;44.60;;;21.57;;
37451;SDS011;23314;51.114;6.900;2022-10-18T08:08:29;43.57;;;22.00;;
37451;SDS011;23314;51.114;6.900;2022-10-18T08:10:54;48.67;;;23.13;;
37451;SDS011;23314;51.114;6.900;2022-10-18T08:13:25;53.92;;;26.08;;
37451;SDS011;23314;51.114;6.900;2022-10-18T08:15:50;62.53;;;28.70;;
37451;SDS011;23314;51.114;6.900;2022-10-18T08:18:23;65.27;;;29.60;;
37451;SDS011;23314;51.114;6.900;2022-10-18T08:20:49;65.18;;;32.25;;
37451;SDS011;23314;51.114;6.900;2022-10-18T08:23:14;73.65;;;30.35;;
37451;SDS011;23314;51.114;6.900;2022-10-18T08:25:39;63.38;;;30.05;;
37451;SDS011;23314;51.114;6.900;2022-10-18T08:28:05;61.92;;;29.10;;
37451;SDS011;23314;51.114;6.900;2022-10-18T08:30:31;64.45;;;30.00;;
37451;SDS011;23314;51.114;6.900;2022-10-18T08:32:56;64.80;;;30.50;;
37451;SDS011;23314;51.114;6.900;2022-10-18T08:35:21;62.63;;;28.90;;
37451;SDS011;23314;51.114;6.900;2022-10-18T08:37:47;62.35;;;28.95;;
37451;SDS011;23314;51.114;6.900;2022-10-18T08:40:13;57.53;;;27.93;;
37451;SDS011;23314;51.114;6.900;2022-10-18T08:45:29;52.07;;;28.70;;
37451;SDS011;23314;51.114;6.900;2022-10-18T08:48:00;55.43;;;27.90;;
37451;SDS011;23314;51.114;6.900;2022-10-18T08:50:30;44.50;;;26.90;;
37451;SDS011;23314;51.114;6.900;2022-10-18T08:53:02;47.33;;;27.48;;
37451;SDS011;23314;51.114;6.900;2022-10-18T08:55:48;47.37;;;27.70;;
37451;SDS011;23314;51.114;6.900;2022-10-18T08:58:19;38.85;;;25.20;;
37451;SDS011;23314;51.114;6.900;2022-10-18T09:03:56;50.33;;;30.20;;
37451;SDS011;23314;51.114;6.900;2022-10-18T09:12:14;60.10;;;32.13;;
37451;SDS011;23314;51.114;6.900;2022-10-18T09:15:03;59.40;;;34.17;;
37451;SDS011;23314;51.114;6.900;2022-10-18T09:23:02;51.10;;;33.60;;
37451;SDS011;23314;51.114;6.900;2022-10-18T09:33:45;54.58;;;34.60;;
37451;SDS011;23314;51.114;6.900;2022-10-18T09:36:33;62.47;;;35.47;;
37451;SDS011;23314;51.114;6.900;2022-10-18T09:39:11;57.50;;;37.67;;
37451;SDS011;23314;51.114;6.900;2022-10-18T09:41:40;61.85;;;37.53;;
37451;SDS011;23314;51.114;6.900;2022-10-18T09:44:15;59.38;;;37.08;;
37451;SDS011;23314;51.114;6.900;2022-10-18T09:46:50;54.20;;;35.15;;
37451;SDS011;23314;51.114;6.900;2022-10-18T09:49:22;54.15;;;33.13;;
37451;SDS011;23314;51.114;6.900;2022-10-18T09:51:51;54.38;;;32.42;;
37451;SDS011;23314;51.114;6.900;2022-10-18T09:54:34;54.85;;;34.10;;
37451;SDS011;23314;51.114;6.900;2022-10-18T09:57:09;57.17;;;32.78;;
37451;SDS011;23314;51.114;6.900;2022-10-18T09:59:39;55.63;;;31.73;;
37451;SDS011;23314;51.114;6.900;2022-10-18T10:02:08;49.45;;;32.38;;
37451;SDS011;23314;51.114;6.900;2022-10-18T10:04:38;49.00;;;29.50;;
37451;SDS011;23314;51.114;6.900;2022-10-18T10:07:05;51.50;;;32.65;;
37451;SDS011;23314;51.114;6.900;2022-10-18T10:09:39;56.38;;;32.42;;
37451;SDS011;23314;51.114;6.900;2022-10-18T10:14:50;59.85;;;35.00;;
37451;SDS011;23314;51.114;6.900;2022-10-18T10:17:23;56.33;;;35.00;;
37451;SDS011;23314;51.114;6.900;2022-10-18T10:22:37;61.05;;;38.92;;
37451;SDS011;23314;51.114;6.900;2022-10-18T10:25:03;58.30;;;36.30;;
37451;SDS011;23314;51.114;6.900;2022-10-18T10:30:20;51.50;;;34.53;;
37451;SDS011;23314;51.114;6.900;2022-10-18T10:32:49;51.38;;;35.50;;
37451;SDS011;23314;51.114;6.900;2022-10-18T10:38:04;62.33;;;37.17;;
37451;SDS011;23314;51.114;6.900;2022-10-18T10:40:34;63.58;;;37.67;;
37451;SDS011;23314;51.114;6.900;2022-10-18T10:46:13;56.75;;;38.22;;
37451;SDS011;23314;51.114;6.900;2022-10-18T10:48:56;58.72;;;40.08;;
37451;SDS011;23314;51.114;6.900;2022-10-18T10:51:36;58.25;;;41.65;;
37451;SDS011;23314;51.114;6.900;2022-10-18T10:54:20;54.78;;;40.00;;
37451;SDS011;23314;51.114;6.900;2022-10-18T10:56:50;50.42;;;40.00;;
37451;SDS011;23314;51.114;6.900;2022-10-18T10:59:19;48.63;;;40.17;;
37451;SDS011;23314;51.114;6.900;2022-10-18T11:01:48;48.20;;;39.88;;
37451;SDS011;23314;51.114;6.900;2022-10-18T11:04:48;46.08;;;38.25;;
37451;SDS011;23314;51.114;6.900;2022-10-18T11:10:10;50.97;;;38.63;;
37451;SDS011;23314;51.114;6.900;2022-10-18T11:15:20;49.85;;;39.33;;
37451;SDS011;23314;51.114;6.900;2022-10-18T11:20:35;51.75;;;41.30;;
37451;SDS011;23314;51.114;6.900;2022-10-18T11:23:05;49.55;;;41.08;;
37451;SDS011;23314;51.114;6.900;2022-10-18T11:31:17;61.20;;;45.60;;
37451;SDS011;23314;51.114;6.900;2022-10-18T11:36:57;66.13;;;48.92;;
37451;SDS011;23314;51.114;6.900;2022-10-18T11:39:40;86.50;;;57.50;;
37451;SDS011;23314;51.114;6.900;2022-10-18T11:42:18;99.78;;;61.85;;
37451;SDS011;23314;51.114;6.900;2022-10-18T11:44:52;91.38;;;61.75;;
37451;SDS011;23314;51.114;6.900;2022-10-18T11:50:29;101.93;;;61.50;;
37451;SDS011;23314;51.114;6.900;2022-10-18T11:53:33;96.43;;;59.28;;
37451;SDS011;23314;51.114;6.900;2022-10-18T11:59:19;88.90;;;55.60;;
37451;SDS011;23314;51.114;6.900;2022-10-18T12:05:02;80.13;;;51.42;;
37451;SDS011;23314;51.114;6.900;2022-10-18T12:07:30;83.00;;;49.60;;
37451;SDS011;23314;51.114;6.900;2022-10-18T12:09:58;77.03;;;48.38;;
37451;SDS011;23314;51.114;6.900;2022-10-18T12:12:27;75.55;;;47.85;;
37451;SDS011;23314;51.114;6.900;2022-10-18T12:14:56;71.30;;;46.20;;
37451;SDS011;23314;51.114;6.900;2022-10-18T12:17:41;68.78;;;42.42;;
37451;SDS011;23314;51.114;6.900;2022-10-18T12:20:15;66.70;;;41.85;;
37451;SDS011;23314;51.114;6.900;2022-10-18T12:25:48;54.70;;;36.42;;
37451;SDS011;23314;51.114;6.900;2022-10-18T12:31:33;50.08;;;34.75;;
37451;SDS011;23314;51.114;6.900;2022-10-18T12:39:55;45.53;;;31.00;;
37451;SDS011;23314;51.114;6.900;2022-10-18T12:42:27;40.67;;;28.05;;
37451;SDS011;23314;51.114;6.900;2022-10-18T12:44:59;38.78;;;27.05;;
37451;SDS011;23314;51.114;6.900;2022-10-18T12:47:26;42.72;;;28.38;;
37451;SDS011;23314;51.114;6.900;2022-10-18T12:49:54;36.45;;;26.60;;
37451;SDS011;23314;51.114;6.900;2022-10-18T12:52:22;36.08;;;24.92;;
37451;SDS011;23314;51.114;6.900;2022-10-18T13:05:59;34.05;;;20.45;;
37451;SDS011;23314;51.114;6.900;2022-10-18T13:16:23;31.17;;;21.25;;
37451;SDS011;23314;51.114;6.900;2022-10-18T13:18:56;27.63;;;20.90;;
37451;SDS011;23314;51.114;6.900;2022-10-18T13:24:22;27.05;;;20.52;;
37451;SDS011;23314;51.114;6.900;2022-10-18T13:29:24;33.78;;;20.08;;
37451;SDS011;23314;51.114;6.900;2022-10-18T13:32:14;24.95;;;17.08;;
37451;SDS011;23314;51.114;6.900;2022-10-18T13:34:47;24.58;;;15.95;;
37451;SDS011;23314;51.114;6.900;2022-10-18T13:39:39;28.50;;;15.63;;
37451;SDS011;23314;51.114;6.900;2022-10-18T13:44:39;24.50;;;14.25;;
37451;SDS011;23314;51.114;6.900;2022-10-18T13:47:08;28.63;;;14.82;;
37451;SDS011;23314;51.114;6.900;2022-10-18T13:58:02;28.58;;;15.23;;
37451;SDS011;23314;51.114;6.900;2022-10-18T14:00:50;20.17;;;13.43;;
37451;SDS011;23314;51.114;6.900;2022-10-18T14:11:41;22.02;;;12.65;;
37451;SDS011;23314;51.114;6.900;2022-10-18T14:20:03;20.17;;;12.15;;
37451;SDS011;23314;51.114;6.900;2022-10-18T14:22:42;20.10;;;12.18;;
37451;SDS011;23314;51.114;6.900;2022-10-18T14:25:22;22.52;;;12.13;;
37451;SDS011;23314;51.114;6.900;2022-10-18T14:38:47;19.23;;;12.25;;
37451;SDS011;23314;51.114;6.900;2022-10-18T14:43:44;17.67;;;11.05;;
37451;SDS011;23314;51.114;6.900;2022-10-18T14:46:20;20.67;;;11.10;;
37451;SDS011;23314;51.114;6.900;2022-10-18T14:51:18;20.75;;;9.85;;
37451;SDS011;23314;51.114;6.900;2022-10-18T14:53:43;15.75;;;9.70;;
37451;SDS011;23314;51.114;6.900;2022-10-18T14:58:52;15.70;;;8.70;;
37451;SDS011;23314;51.114;6.900;2022-10-18T15:01:20;17.15;;;8.77;;
37451;SDS011;23314;51.114;6.900;2022-10-18T15:03:49;17.15;;;9.93;;
37451;SDS011;23314;51.114;6.900;2022-10-18T15:06:18;20.27;;;9.88;;
37451;SDS011;23314;51.114;6.900;2022-10-18T15:08:44;15.07;;;10.15;;
37451;SDS011;23314;51.114;6.900;2022-10-18T15:11:13;18.55;;;9.82;;
37451;SDS011;23314;51.114;6.900;2022-10-18T15:13:51;15.57;;;8.43;;
37451;SDS011;23314;51.114;6.900;2022-10-18T15:16:21;16.65;;;8.77;;
37451;SDS011;23314;51.114;6.900;2022-10-18T15:21:33;20.63;;;9.00;;
37451;SDS011;23314;51.114;6.900;2022-10-18T15:24:19;19.37;;;8.93;;
37451;SDS011;23314;51.114;6.900;2022-10-18T15:26:58;21.37;;;8.83;;
37451;SDS011;23314;51.114;6.900;2022-10-18T15:29:26;17.93;;;7.97;;
37451;SDS011;23314;51.114;6.900;2022-10-18T15:32:01;20.03;;;9.23;;
37451;SDS011;23314;51.114;6.900;2022-10-18T15:34:31;21.33;;;9.07;;
37451;SDS011;23314;51.114;6.900;2022-10-18T15:36:56;15.13;;;8.20;;
37451;SDS011;23314;51.114;6.900;2022-10-18T15:39:23;16.65;;;7.88;;
37451;SDS011;23314;51.114;6.900;2022-10-18T15:41:54;20.83;;;9.07;;
37451;SDS011;23314;51.114;6.900;2022-10-18T15:44:25;17.17;;;8.60;;
37451;SDS011;23314;51.114;6.900;2022-10-18T15:46:55;20.57;;;8.97;;
37451;SDS011;23314;51.114;6.900;2022-10-18T15:58:15;22.73;;;9.67;;
37451;SDS011;23314;51.114;6.900;2022-10-18T16:00:43;16.97;;;9.10;;
37451;SDS011;23314;51.114;6.900;2022-10-18T16:03:09;17.47;;;9.63;;
37451;SDS011;23314;51.114;6.900;2022-10-18T16:05:36;21.40;;;9.10;;
37451;SDS011;23314;51.114;6.900;2022-10-18T16:08:02;21.80;;;8.97;;
37451;SDS011;23314;51.114;6.900;2022-10-18T16:10:28;26.37;;;9.37;;
37451;SDS011;23314;51.114;6.900;2022-10-18T16:12:53;18.23;;;9.07;;
37451;SDS011;23314;51.114;6.900;2022-10-18T16:15:19;22.00;;;9.00;;
37451;SDS011;23314;51.114;6.900;2022-10-18T16:17:45;25.23;;;8.87;;
37451;SDS011;23314;51.114;6.900;2022-10-18T16:20:17;19.23;;;8.53;;
37451;SDS011;23314;51.114;6.900;2022-10-18T16:22:46;20.40;;;9.57;;
37451;SDS011;23314;51.114;6.900;2022-10-18T16:25:11;17.33;;;8.93;;
37451;SDS011;23314;51.114;6.900;2022-10-18T16:27:37;19.37;;;9.07;;
37451;SDS011;23314;51.114;6.900;2022-10-18T16:30:08;21.37;;;9.77;;
37451;SDS011;23314;51.114;6.900;2022-10-18T16:32:36;25.20;;;10.40;;
37451;SDS011;23314;51.114;6.900;2022-10-18T16:35:01;21.47;;;9.70;;
37451;SDS011;23314;51.114;6.900;2022-10-18T16:37:27;19.47;;;8.90;;
37451;SDS011;23314;51.114;6.900;2022-10-18T16:39:52;22.70;;;9.80;;
37451;SDS011;23314;51.114;6.900;2022-10-18T16:42:18;21.00;;;9.80;;
37451;SDS011;23314;51.114;6.900;2022-10-18T16:44:43;24.67;;;10.13;;
37451;SDS011;23314;51.114;6.900;2022-10-18T16:47:09;24.43;;;10.33;;
37451;SDS011;23314;51.114;6.900;2022-10-18T16:49:35;21.37;;;10.40;;
37451;SDS011;23314;51.114;6.900;2022-10-18T16:52:00;22.30;;;10.57;;
37451;SDS011;23314;51.114;6.900;2022-10-18T16:54:25;26.17;;;10.23;;
37451;SDS011;23314;51.114;6.900;2022-10-18T16:56:51;23.50;;;10.80;;
37451;SDS011;23314;51.114;6.900;2022-10-18T16:59:20;24.17;;;10.60;;
37451;SDS011;23314;51.114;6.900;2022-10-18T17:01:49;28.90;;;11.17;;
37451;SDS011;23314;51.114;6.900;2022-10-18T17:04:14;24.13;;;10.73;;
37451;SDS011;23314;51.114;6.900;2022-10-18T17:06:40;24.37;;;10.83;;
37451;SDS011;23314;51.114;6.900;2022-10-18T17:09:05;21.40;;;10.20;;
37451;SDS011;23314;51.114;6.900;2022-10-18T17:11:30;18.07;;;9.57;;
37451;SDS011;23314;51.114;6.900;2022-10-18T17:13:56;22.20;;;10.00;;
37451;SDS011;23314;51.114;6.900;2022-10-18T17:16:22;29.50;;;12.07;;
37451;SDS011;23314;51.114;6.900;2022-10-18T17:18:52;25.27;;;11.47;;
37451;SDS011;23314;51.114;6.900;2022-10-18T17:21:18;25.80;;;11.23;;
37451;SDS011;23314;51.114;6.900;2022-10-18T17:23:44;21.37;;;8.90;;
37451;SDS011;23314;51.114;6.900;2022-10-18T17:26:12;18.77;;;8.10;;
37451;SDS011;23314;51.114;6.900;2022-10-18T17:28:39;17.13;;;7.73;;
37451;SDS011;23314;51.114;6.900;2022-10-18T17:31:07;18.27;;;7.40;;
37451;SDS011;23314;51.114;6.900;2022-10-18T17:33:33;16.90;;;7.90;;